Time;durP1;ratioP1;P1;durP2;ratioP2;P2;SDS_P1;SDS_P2;PMS_P1;PMS_P2;Temp;Humidity;BMP_temperature;BMP_pressure;BME280_temperature;BME280_humidity;BME280_pressure;Samples;Min_cycle;Max_cycle;Signal;HPM_P1;HPM_P2
2022/06/10 00:02:21;;;;;;;;;9.75;9.75;;;;;13.12;78.74;100397.75;5094566;28;8838;-63
2022/06/10 00:04:48;;;;;;;;;6.50;6.50;;;;;13.11;78.58;100406.75;5094003;28;8844;-64
2022/06/10 00:07:17;;;;;;;;;8.50;8.50;;;;;13.09;78.96;100401.56;5094633;28;8846;-64
2022/06/10 00:09:44;;;;;;;;;9.00;6.50;;;;;13.07;78.86;100402.66;5113334;28;8832;-65
2022/06/10 00:12:12;;;;;;;;;9.00;6.25;;;;;13.05;78.99;100410.78;5115765;28;8836;-64
2022/06/10 00:14:40;;;;;;;;;9.50;8.50;;;;;13.03;78.54;100409.22;5116060;28;8946;-64
2022/06/10 00:17:09;;;;;;;;;7.50;7.00;;;;;13.01;78.90;100405.81;5118124;28;9117;-64
2022/06/10 00:19:36;;;;;;;;;6.75;6.75;;;;;13.00;79.05;100406.81;5101496;28;8802;-64
2022/06/10 00:22:04;;;;;;;;;6.50;5.00;;;;;12.98;78.66;100411.44;5099377;28;9498;-64
2022/06/10 00:24:32;;;;;;;;;7.50;7.50;;;;;12.97;78.53;100404.38;5099216;28;8826;-64
2022/06/10 00:27:00;;;;;;;;;9.25;9.00;;;;;12.94;78.86;100413.50;5098643;28;8830;-64
2022/06/10 00:29:27;;;;;;;;;10.25;8.75;;;;;12.92;78.87;100403.88;5119047;28;8835;-64
2022/06/10 00:31:55;;;;;;;;;8.00;8.00;;;;;12.87;79.03;100403.41;5119602;28;8883;-64
2022/06/10 00:34:23;;;;;;;;;11.00;9.75;;;;;12.83;79.22;100404.63;5119848;28;8838;-64
2022/06/10 00:36:51;;;;;;;;;8.50;8.50;;;;;12.78;79.28;100404.16;5119752;28;8823;-64
2022/06/10 00:39:19;;;;;;;;;10.00;9.00;;;;;12.75;79.45;100399.06;5100810;28;8836;-64
2022/06/10 00:41:47;;;;;;;;;9.00;9.00;;;;;12.71;79.13;100406.47;5097521;28;8830;-64
2022/06/10 00:44:15;;;;;;;;;7.00;7.00;;;;;12.68;79.41;100400.53;5097590;28;8936;-64
2022/06/10 00:46:42;;;;;;;;;10.00;10.00;;;;;12.66;79.47;100400.66;5098712;28;8834;-64
2022/06/10 00:49:10;;;;;;;;;10.50;8.00;;;;;12.71;78.97;100401.13;5115825;28;8831;-63
2022/06/10 00:51:38;;;;;;;;;9.50;8.00;;;;;12.73;78.81;100403.66;5118656;28;9949;-64
2022/06/10 00:54:07;;;;;;;;;12.25;10.75;;;;;12.72;78.97;100401.97;5119392;28;8843;-64
2022/06/10 00:56:35;;;;;;;;;9.50;9.50;;;;;12.70;79.46;100402.09;5119205;28;8966;-64
2022/06/10 00:59:03;;;;;;;;;10.00;9.00;;;;;12.68;78.94;100405.88;5103167;28;8818;-64
2022/06/10 01:01:31;;;;;;;;;9.25;9.25;;;;;12.66;78.70;100394.44;5098832;28;8838;-64
2022/06/10 01:03:59;;;;;;;;;6.00;6.00;;;;;12.64;79.36;100399.94;5098947;28;9602;-64
2022/06/10 01:06:27;;;;;;;;;6.00;5.50;;;;;12.61;79.08;100400.16;5098901;28;8968;-64
2022/06/10 01:08:55;;;;;;;;;9.25;9.25;;;;;12.59;79.30;100402.13;5112577;28;8831;-64
2022/06/10 01:11:23;;;;;;;;;7.00;7.00;;;;;12.54;79.46;100396.28;5119122;28;8866;-64
2022/06/10 01:13:50;;;;;;;;;9.50;9.50;;;;;12.49;79.48;100394.97;5118733;28;8832;-64
2022/06/10 01:16:18;;;;;;;;;9.50;9.50;;;;;12.44;79.40;100402.47;5118606;28;8828;-64
2022/06/10 01:18:46;;;;;;;;;10.00;9.00;;;;;12.40;79.30;100398.38;5105479;28;8806;-64
2022/06/10 01:21:14;;;;;;;;;10.00;7.00;;;;;12.34;79.53;100396.19;5098680;28;9523;-64
2022/06/10 01:23:42;;;;;;;;;10.75;9.50;;;;;12.28;79.75;100397.53;5098082;28;8850;-64
2022/06/10 01:26:10;;;;;;;;;10.00;9.75;;;;;12.24;80.16;100395.22;5095984;28;8848;-64
2022/06/10 01:28:38;;;;;;;;;8.00;7.00;;;;;12.21;79.71;100393.66;5108767;28;8948;-64
2022/06/10 01:31:05;;;;;;;;;10.50;10.50;;;;;12.18;80.15;100395.69;5118863;28;9505;-64
2022/06/10 01:33:33;;;;;;;;;12.00;12.00;;;;;12.16;79.70;100394.97;5118498;28;8827;-64
2022/06/10 01:36:01;;;;;;;;;12.25;11.00;;;;;12.15;79.99;100380.78;5118313;28;8836;-64
2022/06/10 01:38:30;;;;;;;;;10.00;10.00;;;;;12.16;80.26;100392.31;5108305;28;8814;-63
2022/06/10 01:40:58;;;;;;;;;9.75;9.50;;;;;12.15;79.86;100385.28;5098728;28;8822;-64
2022/06/10 01:43:26;;;;;;;;;11.00;9.50;;;;;12.15;79.63;100386.13;5097564;28;8906;-65
2022/06/10 01:45:54;;;;;;;;;10.00;9.00;;;;;12.13;79.65;100384.53;5097801;28;8857;-64
2022/06/10 01:48:22;;;;;;;;;9.75;9.75;;;;;12.09;79.62;100386.59;5106677;28;8921;-63
2022/06/10 01:50:51;;;;;;;;;7.25;6.25;;;;;12.06;80.20;100386.84;5117771;28;8901;-64
2022/06/10 01:53:18;;;;;;;;;7.50;7.00;;;;;12.02;80.38;100387.22;5118452;28;9596;-64
2022/06/10 01:55:46;;;;;;;;;10.00;8.75;;;;;11.99;79.86;100390.09;5118031;28;8881;-63
2022/06/10 01:58:14;;;;;;;;;13.75;12.75;;;;;11.95;79.70;100394.81;5110402;28;8802;-63
2022/06/10 02:00:42;;;;;;;;;9.50;7.00;;;;;11.92;80.49;100388.03;5097195;28;8846;-64
2022/06/10 02:03:11;;;;;;;;;10.00;7.50;;;;;11.90;80.10;100380.16;5097641;28;8845;-63
2022/06/10 02:05:39;;;;;;;;;11.50;10.00;;;;;11.89;80.66;100386.47;5097716;28;8880;-64
2022/06/10 02:08:07;;;;;;;;;13.50;10.25;;;;;11.88;79.86;100390.09;5102427;28;9473;-64
2022/06/10 02:10:36;;;;;;;;;10.50;10.00;;;;;11.85;80.22;100387.69;5117755;28;8950;-64
2022/06/10 02:13:04;;;;;;;;;11.00;11.00;;;;;11.83;80.17;100394.94;5117696;28;8828;-64
2022/06/10 02:15:32;;;;;;;;;7.00;7.00;;;;;11.78;80.19;100383.78;5117890;28;9753;-64
2022/06/10 02:18:00;;;;;;;;;8.50;4.00;;;;;11.75;80.19;100397.34;5112492;28;8837;-65
2022/06/10 02:20:28;;;;;;;;;10.00;9.50;;;;;11.72;80.54;100396.72;5096991;28;8829;-64
2022/06/10 02:22:56;;;;;;;;;6.50;6.00;;;;;11.69;80.56;100391.66;5097067;28;8838;-63
2022/06/10 02:25:23;;;;;;;;;7.00;7.00;;;;;11.66;80.21;100390.06;5096305;28;8852;-63
2022/06/10 02:27:51;;;;;;;;;7.00;6.50;;;;;11.65;80.31;100395.50;5100502;28;8828;-64
2022/06/10 02:30:19;;;;;;;;;9.25;9.25;;;;;11.64;80.71;100400.00;5117164;28;8852;-64
2022/06/10 02:32:47;;;;;;;;;9.00;8.00;;;;;11.62;80.18;100391.28;5117053;28;8828;-64
2022/06/10 02:35:15;;;;;;;;;9.00;8.50;;;;;11.60;80.28;100403.84;5117782;28;8820;-64
2022/06/10 02:37:44;;;;;;;;;10.00;8.50;;;;;11.58;80.59;100411.13;5114442;28;8828;-63
2022/06/10 02:40:12;;;;;;;;;9.00;7.00;;;;;11.55;80.74;100408.69;5096298;28;8834;-63
2022/06/10 02:42:42;;;;;;;;;7.00;6.00;;;;;11.54;80.04;100406.94;5096518;28;8842;-63
2022/06/10 02:45:10;;;;;;;;;12.25;11.50;;;;;11.59;80.23;100399.50;5096877;28;8837;-63
2022/06/10 02:47:40;;;;;;;;;8.00;6.00;;;;;11.66;79.86;100403.41;5097242;28;8936;-63
2022/06/10 02:50:09;;;;;;;;;12.50;10.00;;;;;11.72;79.96;100408.25;5115844;28;8946;-63
2022/06/10 02:52:37;;;;;;;;;11.00;11.00;;;;;11.77;80.06;100411.44;5116228;28;8824;-64
2022/06/10 02:55:04;;;;;;;;;12.25;10.50;;;;;11.80;79.48;100413.84;5116555;28;8824;-64
2022/06/10 03:03:00;;;;;;;;;15.75;14.00;;;;;11.91;79.36;100418.38;5096362;28;8826;-63
2022/06/10 03:05:28;;;;;;;;;11.25;10.00;;;;;11.93;79.34;100411.09;5095406;28;8846;-63
2022/06/10 03:07:56;;;;;;;;;8.00;8.00;;;;;11.95;79.72;100410.00;5098810;28;8831;-63
2022/06/10 03:10:24;;;;;;;;;12.00;12.00;;;;;11.97;79.41;100407.22;5116826;28;8854;-63
2022/06/10 03:12:51;;;;;;;;;10.00;10.00;;;;;11.94;79.18;100409.13;5116362;28;8828;-63
2022/06/10 03:15:19;;;;;;;;;12.00;10.00;;;;;11.93;79.50;100414.63;5116612;28;8839;-63
2022/06/10 03:17:47;;;;;;;;;10.50;9.25;;;;;11.89;79.77;100415.81;5114636;28;8850;-63
2022/06/10 03:20:15;;;;;;;;;9.00;8.00;;;;;11.86;79.63;100426.72;5096351;28;8841;-63
2022/06/10 03:22:43;;;;;;;;;9.00;9.00;;;;;11.81;79.46;100420.03;5096066;28;8840;-63
2022/06/10 03:25:11;;;;;;;;;9.50;8.75;;;;;11.75;80.11;100421.34;5095904;28;8834;-63
2022/06/10 03:27:38;;;;;;;;;7.00;7.00;;;;;11.72;79.91;100428.75;5096035;28;8842;-63
2022/06/10 03:30:07;;;;;;;;;9.00;9.00;;;;;11.69;80.35;100435.16;5116447;28;8974;-63
2022/06/10 03:32:34;;;;;;;;;6.25;5.00;;;;;11.66;80.19;100430.06;5116289;28;8959;-63
2022/06/10 03:35:02;;;;;;;;;5.00;5.00;;;;;11.65;80.15;100427.50;5116389;28;8816;-63
2022/06/10 03:37:30;;;;;;;;;6.25;6.25;;;;;11.62;80.14;100428.63;5116455;28;8854;-63
2022/06/10 03:39:58;;;;;;;;;8.50;7.75;;;;;11.62;79.58;100441.97;5096067;28;8860;-63
2022/06/10 03:42:26;;;;;;;;;10.25;9.25;;;;;11.60;80.30;100435.88;5095388;28;8806;-63
2022/06/10 03:44:53;;;;;;;;;8.00;8.00;;;;;11.58;80.13;100437.81;5096052;28;8829;-63
2022/06/10 03:47:21;;;;;;;;;6.50;4.50;;;;;11.57;79.96;100438.75;5096117;28;8830;-64
2022/06/10 03:49:49;;;;;;;;;8.00;7.00;;;;;11.57;80.14;100438.75;5114172;28;8831;-63
2022/06/10 03:52:17;;;;;;;;;12.00;11.50;;;;;11.61;79.77;100442.91;5120359;28;8840;-63
2022/06/10 03:54:45;;;;;;;;;7.00;7.00;;;;;11.71;79.46;100437.72;5120636;28;8828;-63
2022/06/10 03:57:13;;;;;;;;;12.00;10.00;;;;;11.80;79.15;100445.00;5119882;28;8870;-64
2022/06/10 03:59:41;;;;;;;;;14.00;10.00;;;;;11.90;79.69;100446.88;5102448;28;8830;-63
2022/06/10 04:02:09;;;;;;;;;16.50;13.00;;;;;11.99;78.93;100449.69;5099553;28;8840;-64
2022/06/10 04:04:36;;;;;;;;;14.00;10.00;;;;;12.08;78.26;100461.47;5099757;28;8848;-63
2022/06/10 04:07:04;;;;;;;;;7.00;6.75;;;;;12.16;78.74;100451.88;5099959;28;8834;-64
2022/06/10 04:09:32;;;;;;;;;11.50;8.25;;;;;12.25;78.27;100455.66;5100841;28;8833;-63
2022/06/10 04:12:00;;;;;;;;;12.75;11.00;;;;;12.31;77.94;100456.03;5099095;28;9637;-63
2022/06/10 04:14:28;;;;;;;;;11.00;9.50;;;;;12.38;78.40;100456.41;5099152;28;9541;-63
2022/06/10 04:16:56;;;;;;;;;13.75;11.50;;;;;12.44;78.27;100458.56;5099546;28;8834;-63
2022/06/10 04:19:24;;;;;;;;;12.50;10.00;;;;;12.51;78.25;100459.78;5113166;28;8815;-63
2022/06/10 04:21:52;;;;;;;;;10.50;9.50;;;;;12.60;77.27;100461.75;5119788;28;8958;-63
2022/06/10 04:24:20;;;;;;;;;15.25;12.50;;;;;12.68;77.47;100459.31;5119273;28;8857;-63
2022/06/10 04:26:48;;;;;;;;;12.25;10.50;;;;;12.78;77.34;100465.63;5119946;28;9517;-63
2022/06/10 04:29:16;;;;;;;;;12.50;12.25;;;;;12.88;77.64;100461.22;5106480;28;8814;-63
2022/06/10 04:31:44;;;;;;;;;10.00;9.25;;;;;12.97;77.25;100460.50;5099885;28;8850;-65
2022/06/10 04:34:12;;;;;;;;;12.00;9.25;;;;;13.06;76.94;100460.63;5099055;28;8854;-64
2022/06/10 04:36:40;;;;;;;;;15.50;13.00;;;;;13.15;76.59;100459.03;5099103;28;8830;-64
2022/06/10 04:39:08;;;;;;;;;7.25;6.75;;;;;13.24;76.97;100463.63;5109574;28;9491;-64
2022/06/10 04:41:36;;;;;;;;;8.00;6.50;;;;;13.34;76.75;100456.53;5119364;28;8854;-64
2022/06/10 04:44:04;;;;;;;;;15.00;14.50;;;;;13.42;76.51;100460.28;5118779;28;9659;-64
2022/06/10 04:46:32;;;;;;;;;9.25;8.00;;;;;13.52;76.05;100457.69;5118914;28;8836;-64
2022/06/10 04:49:00;;;;;;;;;13.00;12.00;;;;;13.62;75.99;100461.28;5109248;28;8884;-64
2022/06/10 04:51:28;;;;;;;;;9.50;9.25;;;;;13.72;75.71;100457.72;5098367;28;8822;-63
2022/06/10 04:53:56;;;;;;;;;12.00;9.75;;;;;13.80;75.82;100451.69;5098552;28;8996;-64
2022/06/10 04:56:23;;;;;;;;;10.00;10.00;;;;;13.89;76.01;100453.63;5097997;28;9741;-64
2022/06/10 04:58:52;;;;;;;;;9.25;9.00;;;;;13.97;75.60;100454.63;5105730;28;8816;-64
2022/06/10 05:01:20;;;;;;;;;6.50;6.00;;;;;14.07;75.55;100462.75;5116097;28;8870;-64
2022/06/10 05:03:52;;;;;;;;;9.75;9.75;;;;;14.16;75.18;100454.78;5115910;28;8812;-64
2022/06/10 05:06:20;;;;;;;;;9.75;9.00;;;;;14.26;75.15;100460.22;5101972;28;8821;-64
2022/06/10 05:08:49;;;;;;;;;9.00;8.50;;;;;14.35;74.91;100456.75;5096400;28;8841;-65
2022/06/10 05:11:17;;;;;;;;;9.75;9.75;;;;;14.46;74.80;100467.38;5096590;28;8841;-64
2022/06/10 05:13:45;;;;;;;;;11.50;11.50;;;;;14.56;74.40;100460.25;5096620;28;8833;-64
2022/06/10 05:16:12;;;;;;;;;9.75;9.50;;;;;14.67;74.59;100470.84;5096221;28;8837;-64
2022/06/10 05:18:41;;;;;;;;;9.75;9.00;;;;;14.76;74.41;100470.03;5096741;28;8829;-64
2022/06/10 05:21:10;;;;;;;;;10.00;10.00;;;;;14.85;73.82;100471.91;5097349;28;8833;-64
2022/06/10 05:23:37;;;;;;;;;9.00;8.75;;;;;14.95;73.77;100470.13;5096528;28;8926;-64
2022/06/10 05:26:06;;;;;;;;;12.50;10.00;;;;;15.05;73.33;100476.34;5096317;28;8833;-64
2022/06/10 05:28:35;;;;;;;;;9.00;7.50;;;;;15.15;73.73;100477.22;5095557;28;8852;-65
2022/06/10 05:31:03;;;;;;;;;6.25;6.25;;;;;15.24;73.32;100479.09;5096179;28;8864;-64
2022/06/10 05:34:44;;;;;;;;;6.50;6.25;;;;;15.36;73.46;100478.00;5095736;28;8897;-64
2022/06/10 05:36:20;;;;;;;;;10.00;8.00;;;;;15.46;72.84;100477.03;5096322;28;8857;-65
2022/06/10 05:38:49;;;;;;;;;9.00;7.00;;;;;15.55;72.98;100475.34;5096652;28;8849;-64
2022/06/10 05:44:02;;;;;;;;;11.50;11.50;;;;;15.72;72.68;100472.81;5095779;28;8871;-64
2022/06/10 05:46:30;;;;;;;;;8.50;8.50;;;;;15.80;72.04;100464.88;5096152;28;9007;-65
2022/06/10 05:48:58;;;;;;;;;9.50;9.25;;;;;15.89;72.55;100474.78;5095896;28;8853;-65
2022/06/10 05:51:26;;;;;;;;;10.00;10.00;;;;;15.98;71.87;100467.69;5095283;28;8840;-65
2022/06/10 05:53:54;;;;;;;;;10.50;10.50;;;;;16.09;71.98;100472.91;5096206;28;8906;-65
2022/06/10 05:56:22;;;;;;;;;9.25;8.75;;;;;16.17;71.71;100474.72;5095995;28;8867;-65
2022/06/10 05:58:49;;;;;;;;;12.00;11.50;;;;;16.26;71.74;100486.47;5094919;28;8848;-65
2022/06/10 06:01:17;;;;;;;;;11.50;10.00;;;;;16.33;71.84;100480.34;5094797;28;9819;-64
2022/06/10 06:03:51;;;;;;;;;12.75;12.75;;;;;16.41;71.47;100485.88;5092670;28;8845;-64
2022/06/10 06:06:19;;;;;;;;;9.50;9.00;;;;;16.50;71.16;100482.31;5094173;28;8836;-64
2022/06/10 06:08:48;;;;;;;;;9.00;9.00;;;;;16.60;71.36;100483.13;5093208;28;8869;-64
2022/06/10 06:11:16;;;;;;;;;8.00;8.00;;;;;16.70;70.86;100483.13;5093114;28;8856;-64
2022/06/10 06:13:44;;;;;;;;;6.50;5.00;;;;;16.80;70.45;100489.28;5093909;28;8855;-64
2022/06/10 06:16:12;;;;;;;;;8.00;6.00;;;;;16.90;70.85;100490.09;5093625;28;9506;-64
2022/06/10 06:18:40;;;;;;;;;9.40;9.00;;;;;17.01;70.43;100481.84;5094246;28;8871;-65
2022/06/10 06:21:07;;;;;;;;;6.00;6.00;;;;;17.12;70.38;100487.84;5094325;28;8843;-65
2022/06/10 06:23:35;;;;;;;;;4.40;4.00;;;;;17.27;69.94;100478.28;5094615;28;8859;-64
2022/06/10 06:26:03;;;;;;;;;8.20;7.80;;;;;17.39;70.09;100481.63;5093796;28;8853;-64
2022/06/10 06:28:31;;;;;;;;;6.80;6.20;;;;;17.49;70.12;100480.56;5092505;28;8849;-65
2022/06/10 06:30:59;;;;;;;;;5.60;5.60;;;;;17.56;69.91;100473.56;5093569;28;8887;-65
2022/06/10 06:33:27;;;;;;;;;6.40;5.60;;;;;17.66;69.63;100482.41;5092428;28;8873;-65
2022/06/10 06:35:55;;;;;;;;;4.00;4.00;;;;;17.78;69.25;100483.03;5092579;28;8833;-65
2022/06/10 06:38:22;;;;;;;;;6.60;6.60;;;;;17.92;69.07;100485.19;5092649;28;8837;-65
2022/06/10 06:40:50;;;;;;;;;6.00;4.00;;;;;18.07;68.24;100481.75;5092587;28;8857;-65
2022/06/10 06:43:18;;;;;;;;;4.00;4.00;;;;;18.29;68.03;100478.56;5093542;28;8857;-64
2022/06/10 06:45:46;;;;;;;;;3.80;3.40;;;;;18.55;67.78;100490.25;5093428;28;8857;-65
2022/06/10 06:48:14;;;;;;;;;4.40;4.00;;;;;18.69;67.47;100484.25;5093891;28;8857;-65
2022/06/10 06:50:42;;;;;;;;;3.20;2.60;;;;;18.71;67.12;100484.09;5092902;28;8859;-65
2022/06/10 06:53:10;;;;;;;;;4.00;4.00;;;;;18.72;67.20;100488.47;5091836;28;8858;-65
2022/06/10 06:55:38;;;;;;;;;3.20;3.20;;;;;18.67;67.41;100494.34;5091251;28;8837;-65
2022/06/10 06:58:07;;;;;;;;;3.00;1.80;;;;;18.62;67.57;100496.69;5092529;28;8917;-66
2022/06/10 07:00:34;;;;;;;;;3.80;3.80;;;;;18.58;67.93;100499.88;5091083;28;8882;-66
2022/06/10 07:03:02;;;;;;;;;4.80;4.00;;;;;18.70;66.90;100496.75;5090469;28;9204;-66
2022/06/10 07:05:31;;;;;;;;;3.80;3.20;;;;;18.86;66.76;100504.94;5088358;28;8844;-65
2022/06/10 07:07:59;;;;;;;;;4.00;3.00;;;;;19.02;66.50;100504.16;5087461;28;9534;-65
2022/06/10 07:10:26;;;;;;;;;3.40;3.40;;;;;19.10;66.03;100494.22;5088100;28;9203;-65
2022/06/10 07:12:54;;;;;;;;;3.20;3.20;;;;;19.13;65.99;100496.59;5088683;28;9003;-65
2022/06/10 07:15:22;;;;;;;;;3.00;3.00;;;;;19.22;65.96;100501.09;5087776;28;8870;-65
2022/06/10 07:17:50;;;;;;;;;1.80;1.80;;;;;19.33;65.87;100498.06;5090071;28;8844;-65
2022/06/10 07:20:18;;;;;;;;;1.00;1.00;;;;;19.42;65.76;100499.78;5089514;28;8865;-65
2022/06/10 07:22:46;;;;;;;;;1.80;1.80;;;;;19.49;65.57;100498.09;5091947;28;9519;-66
2022/06/10 07:25:14;;;;;;;;;2.60;2.00;;;;;19.58;65.02;100497.09;5088525;28;8860;-65
2022/06/10 07:27:43;;;;;;;;;0.60;0.60;;;;;19.66;64.28;100497.13;5090253;28;8848;-66
2022/06/10 07:30:10;;;;;;;;;1.40;1.40;;;;;19.73;64.32;100492.75;5090897;28;8869;-66
2022/06/10 07:32:39;;;;;;;;;4.00;4.00;;;;;19.86;64.06;100503.09;5092576;28;8860;-66
2022/06/10 07:35:07;;;;;;;;;0.80;0.80;;;;;19.92;64.19;100497.84;5092194;28;8845;-66
2022/06/10 07:37:34;;;;;;;;;2.60;1.40;;;;;19.99;64.05;100501.56;5089698;28;8857;-66
2022/06/10 07:40:02;;;;;;;;;1.60;1.60;;;;;20.09;64.06;100509.56;5088914;28;8858;-66
2022/06/10 07:42:29;;;;;;;;;2.00;2.00;;;;;20.14;63.90;100502.63;5089949;28;8837;-67
2022/06/10 07:44:57;;;;;;;;;2.00;2.00;;;;;20.16;63.72;100511.41;5091282;28;8875;-67
2022/06/10 07:47:25;;;;;;;;;2.00;2.00;;;;;20.20;63.47;100517.31;5093171;28;9629;-66
2022/06/10 07:49:53;;;;;;;;;1.00;1.00;;;;;20.26;63.46;100513.94;5091919;28;8849;-66
2022/06/10 07:52:21;;;;;;;;;0.00;0.00;;;;;20.29;63.43;100513.59;5091483;28;8975;-66
2022/06/10 07:54:49;;;;;;;;;1.00;1.00;;;;;20.34;63.82;100506.66;5092465;28;8967;-66
2022/06/10 07:57:17;;;;;;;;;2.00;1.00;;;;;20.42;63.55;100517.50;5092369;28;8985;-66
2022/06/10 07:59:45;;;;;;;;;1.00;1.00;;;;;20.50;63.47;100516.63;5091999;28;8952;-66
2022/06/10 08:02:13;;;;;;;;;4.40;4.40;;;;;20.54;63.29;100509.88;5093013;28;8886;-66
2022/06/10 08:04:41;;;;;;;;;2.00;2.00;;;;;20.54;63.29;100510.69;5091080;28;8975;-66
2022/06/10 08:07:09;;;;;;;;;1.40;1.00;;;;;20.59;63.39;100502.06;5091438;28;9506;-66
2022/06/10 08:09:38;;;;;;;;;2.00;1.20;;;;;20.59;63.53;100508.34;5092377;28;8933;-66
2022/06/10 08:12:07;;;;;;;;;4.00;4.00;;;;;20.57;63.66;100513.09;5091257;28;8856;-66
2022/06/10 08:14:34;;;;;;;;;1.20;1.20;;;;;20.54;63.46;100523.41;5092481;28;8844;-66
2022/06/10 08:17:06;;;;;;;;;1.20;1.20;;;;;20.46;63.72;100526.94;5091964;28;8960;-66
2022/06/10 08:19:35;;;;;;;;;0.00;0.00;;;;;20.42;63.85;100525.63;5091342;28;8855;-66
2022/06/10 08:25:03;;;;;;;;;4.00;2.00;;;;;20.55;63.34;100530.50;5029597;28;8852;-66
2022/06/10 08:27:31;;;;;;;;;2.80;1.60;;;;;20.59;63.31;100521.88;5029841;28;9026;-65
2022/06/10 08:29:59;;;;;;;;;1.60;1.60;;;;;20.66;62.89;100522.88;5055503;28;8992;-66
2022/06/10 08:32:26;;;;;;;;;2.00;2.00;;;;;20.76;62.71;100523.53;5088361;28;8833;-66
2022/06/10 08:34:54;;;;;;;;;1.20;1.20;;;;;20.80;62.74;100524.88;5089806;28;8851;-66
2022/06/10 08:37:22;;;;;;;;;1.60;1.20;;;;;20.79;62.77;100520.44;5092033;28;8841;-66
2022/06/10 08:39:50;;;;;;;;;3.20;1.80;;;;;20.81;63.10;100532.81;5094838;28;8899;-66
2022/06/10 08:42:18;;;;;;;;;1.80;1.80;;;;;20.81;62.80;100535.50;5095321;28;8859;-66
2022/06/10 08:44:46;;;;;;;;;3.60;3.60;;;;;20.77;63.02;100528.78;5096233;28;8856;-66
2022/06/10 08:47:14;;;;;;;;;2.00;2.00;;;;;20.69;62.62;100527.94;5096305;28;8844;-66
2022/06/10 08:49:42;;;;;;;;;1.40;1.40;;;;;20.62;62.69;100532.34;5094614;28;8967;-66
2022/06/10 08:52:09;;;;;;;;;4.00;2.00;;;;;20.58;62.82;100539.13;5094345;28;8849;-66
2022/06/10 08:54:37;;;;;;;;;1.40;1.40;;;;;20.50;63.24;100533.72;5095973;28;8833;-66
2022/06/10 08:57:05;;;;;;;;;1.00;1.00;;;;;20.47;62.97;100534.06;5096035;28;8895;-66
2022/06/10 08:59:33;;;;;;;;;1.00;1.00;;;;;20.46;62.94;100537.78;5096036;28;8845;-66
2022/06/10 09:02:03;;;;;;;;;1.00;1.00;;;;;20.39;63.27;100533.22;5095668;28;8853;-66
2022/06/10 09:04:31;;;;;;;;;1.60;1.60;;;;;20.36;63.11;100531.69;5095530;28;8849;-66
2022/06/10 09:07:05;;;;;;;;;1.00;1.00;;;;;20.36;62.61;100534.41;5095918;28;8856;-66
2022/06/10 09:09:33;;;;;;;;;1.00;1.00;;;;;20.28;62.81;100537.13;5095573;28;8875;-66
2022/06/10 09:12:01;;;;;;;;;1.00;1.00;;;;;20.26;62.83;100538.31;5095758;28;8899;-66
2022/06/10 09:14:29;;;;;;;;;1.20;1.20;;;;;20.26;62.88;100541.84;5095260;28;8837;-66
2022/06/10 09:16:57;;;;;;;;;1.80;1.00;;;;;20.32;63.49;100537.63;5094935;28;8861;-66
2022/06/10 09:19:25;;;;;;;;;2.40;1.20;;;;;20.37;62.42;100533.38;5094855;28;8840;-66
2022/06/10 09:21:53;;;;;;;;;1.00;1.00;;;;;20.40;62.47;100540.31;5093568;28;8852;-66
2022/06/10 09:24:21;;;;;;;;;0.00;0.00;;;;;20.44;62.63;100539.81;5094820;28;8868;-66
2022/06/10 09:26:49;;;;;;;;;2.00;2.00;;;;;20.48;62.24;100535.72;5093945;28;8852;-66
2022/06/10 09:29:17;;;;;;;;;1.80;1.40;;;;;20.50;62.36;100541.00;5094399;28;8844;-66
2022/06/10 09:31:44;;;;;;;;;1.60;1.20;;;;;20.57;62.15;100534.75;5094000;28;8861;-66
2022/06/10 09:34:19;;;;;;;;;1.00;1.00;;;;;20.73;61.60;100530.13;5092039;28;8843;-66
2022/06/10 09:36:47;;;;;;;;;2.20;1.80;;;;;21.00;61.05;100528.91;5090773;28;8860;-66
2022/06/10 09:40:35;;;;;;;;;1.60;1.60;;;;;21.34;60.70;100530.28;5090859;28;8851;-66
2022/06/10 09:42:03;;;;;;;;;0.20;0.20;;;;;21.56;59.78;100534.09;5090176;28;8855;-67
2022/06/10 09:44:31;;;;;;;;;4.00;2.00;;;;;21.67;59.64;100520.16;5090331;28;8833;-66
2022/06/10 09:47:00;;;;;;;;;2.80;2.80;;;;;21.78;59.29;100527.91;5091201;28;8849;-66
2022/06/10 09:49:29;;;;;;;;;1.00;1.00;;;;;21.87;58.92;100526.81;5090665;28;9007;-66
2022/06/10 09:51:57;;;;;;;;;2.00;2.00;;;;;21.92;58.99;100517.09;5091154;28;8836;-66
2022/06/10 09:54:25;;;;;;;;;3.60;2.00;;;;;21.95;59.03;100524.03;5092424;28;8832;-66
2022/06/10 09:56:53;;;;;;;;;2.80;2.00;;;;;21.87;59.23;100518.69;5091629;28;8833;-67
2022/06/10 09:59:21;;;;;;;;;2.00;2.00;;;;;21.82;59.41;100534.63;5090662;28;9576;-66
2022/06/10 10:01:50;;;;;;;;;2.00;2.00;;;;;21.85;59.44;100518.03;5090728;28;8881;-67
2022/06/10 10:04:18;;;;;;;;;1.20;1.00;;;;;21.97;59.29;100522.00;5090141;28;8853;-66
2022/06/10 10:06:46;;;;;;;;;2.00;2.00;;;;;22.10;59.09;100516.81;5092914;28;9049;-66
2022/06/10 10:09:14;;;;;;;;;2.80;2.40;;;;;22.14;58.76;100523.53;5093106;28;8922;-66
2022/06/10 10:11:42;;;;;;;;;4.00;4.00;;;;;22.13;59.02;100519.16;5092807;28;8942;-66
2022/06/10 10:14:10;;;;;;;;;2.00;2.00;;;;;22.14;58.89;100509.97;5094083;28;8929;-66
2022/06/10 10:16:38;;;;;;;;;2.00;1.80;;;;;22.22;58.48;100516.19;5094723;28;8857;-67
2022/06/10 10:19:06;;;;;;;;;5.00;5.00;;;;;22.37;58.47;100516.22;5093422;28;8871;-66
2022/06/10 10:21:34;;;;;;;;;4.00;4.00;;;;;22.56;58.13;100507.59;5091593;28;8941;-66
2022/06/10 10:24:02;;;;;;;;;4.80;2.00;;;;;22.75;57.09;100512.50;5091532;28;8836;-66
2022/06/10 10:26:30;;;;;;;;;4.80;2.80;;;;;22.93;56.83;100504.84;5090526;28;8970;-66
2022/06/10 10:28:58;;;;;;;;;2.40;2.40;;;;;23.16;56.64;100505.63;5090174;28;8984;-66
2022/06/10 10:31:26;;;;;;;;;5.00;4.40;;;;;23.48;56.10;100505.19;5091005;28;8903;-66
2022/06/10 10:33:56;;;;;;;;;4.20;4.00;;;;;23.71;55.45;100504.00;5090925;28;8833;-66
2022/06/10 10:36:24;;;;;;;;;2.00;2.00;;;;;24.07;54.70;100502.13;5091918;28;8852;-67
2022/06/10 10:38:52;;;;;;;;;2.00;2.00;;;;;24.32;54.58;100502.53;5091452;28;8867;-66
2022/06/10 10:41:20;;;;;;;;;3.60;2.80;;;;;24.45;54.11;100508.09;5090319;28;8837;-66
2022/06/10 10:43:48;;;;;;;;;4.20;3.40;;;;;24.72;53.99;100502.69;5092995;28;8883;-67
2022/06/10 10:46:16;;;;;;;;;1.60;1.00;;;;;25.00;53.39;100502.66;5092175;28;9003;-67
2022/06/10 10:48:44;;;;;;;;;3.00;2.20;;;;;24.90;53.69;100505.75;5092038;28;8837;-67
2022/06/10 10:51:11;;;;;;;;;2.00;2.00;;;;;24.56;53.88;100507.63;5092100;28;8864;-66
2022/06/10 10:54:00;;;;;;;;;2.00;1.60;;;;;24.45;54.72;100508.09;5091997;28;8841;-67
2022/06/10 10:56:27;;;;;;;;;5.00;4.20;;;;;24.45;54.85;100506.25;5092951;28;8957;-67
2022/06/10 10:58:55;;;;;;;;;3.00;3.00;;;;;24.45;54.92;100505.38;5091613;28;9518;-66
2022/06/10 11:04:04;;;;;;;;;3.00;3.00;;;;;24.38;54.34;100518.09;5090784;28;8853;-66
2022/06/10 11:06:34;;;;;;;;;2.00;1.20;;;;;24.48;54.37;100510.41;5092041;28;8841;-66
2022/06/10 11:09:02;;;;;;;;;2.00;2.00;;;;;24.63;53.70;100506.63;5091861;28;8836;-66
2022/06/10 11:11:36;;;;;;;;;2.00;2.00;;;;;24.56;53.74;100505.72;5092099;28;8844;-67
2022/06/10 11:14:09;;;;;;;;;1.00;1.00;;;;;24.50;54.43;100509.19;5092289;28;8974;-66
2022/06/10 11:16:38;;;;;;;;;2.00;1.20;;;;;24.66;53.74;100513.56;5093420;28;8863;-67
2022/06/10 11:19:07;;;;;;;;;1.60;1.60;;;;;24.55;54.00;100512.22;5093334;28;9596;-66
2022/06/10 11:21:35;;;;;;;;;2.80;2.80;;;;;24.28;54.67;100514.88;5092390;28;8963;-67
2022/06/10 11:24:03;;;;;;;;;2.80;2.20;;;;;23.94;54.80;100510.16;5091746;28;8937;-66
2022/06/10 11:26:31;;;;;;;;;2.00;2.00;;;;;23.67;55.50;100510.03;5091797;28;8889;-66
2022/06/10 11:28:59;;;;;;;;;2.00;2.00;;;;;23.51;56.47;100504.81;5090922;28;8844;-66
2022/06/10 11:31:28;;;;;;;;;3.20;2.80;;;;;23.49;56.18;100510.44;5090145;28;8873;-66
2022/06/10 11:33:56;;;;;;;;;3.20;3.20;;;;;23.40;56.25;100513.44;5089770;28;8853;-66
2022/06/10 11:36:23;;;;;;;;;4.20;4.20;;;;;23.28;56.21;100499.50;5089852;28;8929;-66
2022/06/10 11:38:52;;;;;;;;;4.60;3.20;;;;;23.21;56.51;100503.19;5089792;28;8848;-66
2022/06/10 11:41:20;;;;;;;;;3.20;3.20;;;;;23.22;56.44;100494.81;5088573;28;8931;-66
2022/06/10 11:43:48;;;;;;;;;3.60;2.40;;;;;23.36;56.39;100495.84;5088277;28;8832;-66
2022/06/10 11:46:16;;;;;;;;;5.00;4.20;;;;;23.62;55.75;100501.59;5089419;28;8918;-66
2022/06/10 11:48:45;;;;;;;;;5.00;5.00;;;;;23.97;54.45;100495.31;5089245;28;9243;-66